Time;durP1;ratioP1;P1;durP2;ratioP2;P2;SDS_P1;SDS_P2;PMS_P1;PMS_P2;Temp;Humidity;BMP_temperature;BMP_pressure;BME280_temperature;BME280_humidity;BME280_pressure;Samples;Min_cycle;Max_cycle;Signal;HPM_P1;HPM_P2
2022/03/05 11:17:48;;;;;;;33.53;17.95;;;;;;;5.62;70.61;67400.16;4972678;28;20078;-84
2022/03/05 11:20:14;;;;;;;39.35;18.48;;;;;;;5.77;71.71;67415.97;4969939;28;20054;-85
2022/03/05 11:22:46;;;;;;;34.58;17.35;;;;;;;5.90;71.71;67430.69;4970865;28;20047;-86
2022/03/05 11:25:14;;;;;;;35.78;18.08;;;;;;;6.14;70.93;67457.25;4975296;28;20103;-86
2022/03/05 11:27:39;;;;;;;36.35;17.38;;;;;;;6.28;70.61;67467.25;5015982;28;20051;-86
2022/03/05 11:30:06;;;;;;;33.90;20.00;;;;;;;6.24;67.70;67468.56;4986689;28;20039;-84
2022/03/05 11:32:39;;;;;;;33.70;19.13;;;;;;;6.33;68.25;67481.38;5001207;28;20378;-85
2022/03/05 11:35:43;;;;;;;34.70;17.27;;;;;;;6.37;68.55;67485.34;4978784;28;20489;-86
2022/03/05 11:38:35;;;;;;;31.88;17.50;;;;;;;6.41;69.58;67486.66;4961963;28;20050;-86
2022/03/05 11:41:19;;;;;;;33.08;19.60;;;;;;;6.45;68.60;67483.81;4970891;28;20097;-86
2022/03/05 11:43:46;;;;;;;28.10;15.85;;;;;;;6.51;68.36;67498.53;4959709;28;20138;-87
2022/03/05 11:46:23;;;;;;;32.03;17.58;;;;;;;6.49;68.19;67495.69;4963852;28;20057;-87
2022/03/05 11:49:05;;;;;;;31.58;16.17;;;;;;;6.55;69.29;67503.03;4971540;28;20480;-88
2022/03/05 11:51:31;;;;;;;31.90;17.38;;;;;;;;;;4965007;28;20050;-86
2022/03/05 11:54:05;;;;;;;30.92;16.55;;;;;;;;;;4986632;28;20050;-86
2022/03/05 11:56:31;;;;;;;32.35;18.05;;;;;;;7.01;71.25;67553.38;4969004;28;20077;-86
2022/03/05 11:58:56;;;;;;;31.15;16.70;;;;;;;;;;4977011;28;20104;-85
2022/03/05 12:01:50;;;;;;;29.90;16.95;;;;;;;7.19;66.89;67567.88;4958861;28;20138;-86
2022/03/05 12:04:18;;;;;;;32.25;17.67;;;;;;;7.35;67.61;67591.31;4984066;28;20058;-87
2022/03/05 12:06:44;;;;;;;29.90;18.15;;;;;;;;;;4970196;28;20050;-86
2022/03/05 12:09:29;;;;;;;30.92;17.60;;;;;;;;;;4977004;28;20034;-85
2022/03/05 12:11:55;;;;;;;30.80;17.30;;;;;;;7.56;67.57;67614.50;4991219;28;20052;-86
2022/03/05 12:14:20;;;;;;;29.55;17.48;;;;;;;7.63;68.83;67622.44;5025115;28;20544;-86
2022/03/05 12:16:47;;;;;;;30.77;17.52;;;;;;;7.87;68.08;67643.16;5026470;28;20051;-86
2022/03/05 12:19:15;;;;;;;30.92;16.27;;;;;;;7.87;66.87;67643.72;4982876;28;20047;-87
2022/03/05 12:21:40;;;;;;;30.55;18.25;;;;;;;7.88;68.20;67644.28;4977980;28;20567;-86
2022/03/05 12:24:09;;;;;;;33.33;16.83;;;;;;;8.01;66.17;67663.75;4941789;28;20039;-85
2022/03/05 12:26:53;;;;;;;31.25;16.88;;;;;;;8.09;64.55;67672.81;4926264;29;20059;-87
2022/03/05 12:29:21;;;;;;;26.92;16.00;;;;;;;8.25;64.36;67690.38;4938146;28;20566;-87
2022/03/05 12:31:46;;;;;;;29.45;17.55;;;;;;;8.39;67.23;67705.69;4949516;28;20099;-87
2022/03/05 12:34:12;;;;;;;28.92;16.05;;;;;;;8.41;65.77;67707.94;4924061;28;20039;-86
2022/03/05 12:36:45;;;;;;;30.15;17.02;;;;;;;8.44;63.48;67711.34;4949415;28;20059;-87
2022/03/05 12:39:11;;;;;;;29.92;16.55;;;;;;;8.32;63.83;67693.56;4949492;28;20054;-85
2022/03/05 12:41:36;;;;;;;31.23;17.17;;;;;;;8.38;66.55;67699.22;4940884;28;20106;-86
2022/03/05 12:44:02;;;;;;;33.17;16.88;;;;;;;8.56;64.54;67720.19;4959659;28;20043;-87
2022/03/05 12:46:27;;;;;;;29.17;15.25;;;;;;;8.48;66.75;67716.44;5006395;28;20045;-85
2022/03/05 12:48:53;;;;;;;28.67;15.45;;;;;;;;;;5026386;28;20140;-85
2022/03/05 12:51:22;;;;;;;27.58;14.90;;;;;;;;;;5012611;28;20042;-84
2022/03/05 12:53:56;;;;;;;26.23;15.70;;;;;;;;;;5014215;28;20600;-85
2022/03/05 12:56:22;;;;;;;25.58;15.63;;;;;;;;;;5026789;28;20053;-87
2022/03/05 12:58:47;;;;;;;29.02;16.00;;;;;;;9.10;65.49;67784.44;5003906;28;20646;-87
2022/03/05 13:01:13;;;;;;;27.55;15.65;;;;;;;;;;5025732;28;20057;-88
2022/03/05 13:03:39;;;;;;;25.77;15.38;;;;;;;9.26;64.81;67802.56;4984894;28;20216;-85
2022/03/05 13:06:05;;;;;;;27.17;14.48;;;;;;;;;;4993605;28;20041;-87
2022/03/05 13:08:38;;;;;;;24.38;15.27;;;;;;;9.23;60.66;67799.72;5021012;28;20103;-87
2022/03/05 13:11:22;;;;;;;28.00;13.65;;;;;;;9.12;58.61;67786.69;4992614;28;20069;-87
2022/03/05 13:13:58;;;;;;;29.10;14.48;;;;;;;9.08;60.26;67782.72;5009355;28;20057;-89
2022/03/05 13:16:25;;;;;;;26.45;15.80;;;;;;;9.04;64.65;67772.88;5014544;28;20137;-87
2022/03/05 13:18:54;;;;;;;25.27;15.13;;;;;;;;;;4998894;28;20074;-87
2022/03/05 13:21:20;;;;;;;26.77;15.05;;;;;;;9.21;65.77;67796.91;5001581;28;20053;-86
2022/03/05 13:23:45;;;;;;;26.42;13.50;;;;;;;9.12;59.25;67781.97;5004287;28;20415;-87
2022/03/05 13:26:11;;;;;;;26.15;15.20;;;;;;;9.20;63.75;67796.31;4991176;28;20747;-88
2022/03/05 13:28:43;;;;;;;24.63;13.88;;;;;;;9.42;61.41;67814.81;5024001;28;20042;-89
2022/03/05 13:31:09;;;;;;;26.52;15.63;;;;;;;9.47;64.98;67826.38;4980432;28;20049;-89
2022/03/05 13:33:41;;;;;;;28.23;15.90;;;;;;;9.71;65.30;67853.00;4968158;28;20043;-89
2022/03/05 13:36:12;;;;;;;31.75;14.82;;;;;;;9.52;56.83;67830.91;4993698;28;20041;-88
2022/03/05 13:38:41;;;;;;;29.50;15.50;;;;;;;9.66;65.82;67842.03;4946379;28;20048;-87
2022/03/05 13:41:09;;;;;;;26.58;16.42;;;;;;;;;;4959386;28;20288;-86
2022/03/05 13:43:39;;;;;;;27.20;15.27;;;;;;;10.07;62.42;67887.41;4946771;28;20039;-88
2022/03/05 13:46:10;;;;;;;25.70;15.50;;;;;;;10.09;61.54;67894.97;4947975;28;20119;-87
2022/03/05 13:48:42;;;;;;;28.20;15.18;;;;;;;10.19;61.14;67905.19;4948211;28;20514;-89
2022/03/05 13:51:24;;;;;;;25.40;14.00;;;;;;;;;;4966239;28;20075;-88
2022/03/05 13:53:58;;;;;;;26.95;14.70;;;;;;;9.98;61.90;67874.53;4948205;28;20047;-86
2022/03/05 13:56:24;;;;;;;26.63;14.73;;;;;;;;;;4943735;28;20525;-87
2022/03/05 13:58:51;;;;;;;26.42;16.33;;;;;;;;;;4944277;28;20050;-86
2022/03/05 14:01:27;;;;;;;26.85;15.48;;;;;;;;;;4989718;28;20054;-87
2022/03/05 14:04:11;;;;;;;24.83;16.38;;;;;;;10.15;63.85;67895.91;4988699;28;20034;-86
2022/03/05 14:06:57;;;;;;;26.13;14.43;;;;;;;10.15;58.72;67896.47;4993354;28;20416;-86
2022/03/05 14:09:27;;;;;;;26.77;14.82;;;;;;;10.20;56.40;67901.56;4991504;28;20076;-86
2022/03/05 14:12:05;;;;;;;27.35;16.05;;;;;;;10.33;62.57;67921.09;4991377;28;20038;-86
2022/03/05 14:14:35;;;;;;;26.10;15.27;;;;;;;10.45;60.15;67934.16;4957310;28;20081;-86
2022/03/05 14:17:00;;;;;;;24.63;13.95;;;;;;;;;;4976958;28;20046;-86
2022/03/05 14:19:30;;;;;;;24.45;14.75;;;;;;;10.22;57.62;67903.28;4990188;28;20060;-86
2022/03/05 14:22:10;;;;;;;26.33;14.82;;;;;;;10.44;61.35;67933.56;4986067;28;20081;-86
2022/03/05 14:24:36;;;;;;;23.95;15.07;;;;;;;;;;4972361;28;20064;-86
2022/03/05 14:27:15;;;;;;;27.40;15.70;;;;;;;10.49;58.87;67933.94;4997078;28;20087;-86
2022/03/05 14:29:42;;;;;;;26.60;14.60;;;;;;;10.47;57.13;67937.00;4995050;28;20058;-87
2022/03/05 14:32:09;;;;;;;24.67;16.05;;;;;;;10.44;61.50;67925.59;4983126;28;20043;-86
2022/03/05 14:34:34;;;;;;;25.42;15.02;;;;;;;;;;4941526;28;20050;-86
2022/03/05 14:37:00;;;;;;;25.92;15.50;;;;;;;;;;4970243;28;20042;-86
2022/03/05 14:39:25;;;;;;;22.55;14.27;;;;;;;10.63;56.44;67948.69;4971173;28;20129;-86
2022/03/05 14:41:51;;;;;;;23.25;14.70;;;;;;;10.69;57.74;67956.06;4968816;28;20139;-87
2022/03/05 14:44:16;;;;;;;24.55;15.60;;;;;;;;;;4967187;28;20067;-86
2022/03/05 14:46:41;;;;;;;24.33;14.20;;;;;;;;;;4963449;28;20093;-86
2022/03/05 14:49:07;;;;;;;23.05;14.93;;;;;;;10.61;61.17;67947.53;4964897;28;20290;-87
2022/03/05 14:51:34;;;;;;;26.00;15.00;;;;;;;10.57;54.08;67948.31;4998611;28;20266;-87
2022/03/05 14:53:59;;;;;;;26.27;14.27;;;;;;;10.61;60.61;67947.53;5000082;28;20131;-87
2022/03/05 14:56:24;;;;;;;23.85;13.80;;;;;;;;;;4985117;28;20889;-86
2022/03/05 14:58:50;;;;;;;23.67;14.05;;;;;;;10.70;57.43;67957.19;5025389;28;20044;-86
2022/03/05 15:01:15;;;;;;;22.98;14.30;;;;;;;;;;4992043;28;20046;-85
2022/03/05 15:03:40;;;;;;;24.00;15.23;;;;;;;10.72;57.79;67956.78;5013674;28;20109;-86
2022/03/05 15:06:06;;;;;;;25.08;14.63;;;;;;;;;;4986776;28;20500;-86
2022/03/05 15:08:31;;;;;;;25.95;15.50;;;;;;;10.74;60.83;67961.72;4987647;28;20692;-86
2022/03/05 15:10:57;;;;;;;24.95;15.52;;;;;;;10.66;58.56;67957.41;4985225;28;20089;-87
2022/03/05 15:13:22;;;;;;;22.85;14.43;;;;;;;10.71;55.27;67966.31;4990577;28;20046;-86
2022/03/05 15:15:48;;;;;;;24.45;14.48;;;;;;;10.57;57.07;67948.31;4990969;28;20404;-87
2022/03/05 15:18:13;;;;;;;25.60;14.93;;;;;;;10.64;59.28;67949.81;4987974;28;20042;-87
2022/03/05 15:20:39;;;;;;;26.45;14.70;;;;;;;;;;5018916;28;20061;-86
2022/03/05 15:23:06;;;;;;;22.25;14.02;;;;;;;10.51;58.90;67941.53;5014840;28;20042;-88
2022/03/05 15:25:31;;;;;;;24.38;14.70;;;;;;;;;;4973873;28;20120;-89
2022/03/05 15:27:56;;;;;;;24.80;16.02;;;;;;;;;;4959068;28;20107;-88
2022/03/05 15:30:22;;;;;;;25.98;16.50;;;;;;;10.55;57.12;67946.06;4950471;28;20078;-86
2022/03/05 15:32:47;;;;;;;26.67;14.38;;;;;;;;;;4976721;28;20042;-87
2022/03/05 15:35:13;;;;;;;28.08;14.98;;;;;;;10.56;57.45;67947.19;4958273;28;20039;-86
2022/03/05 15:37:38;;;;;;;26.40;15.85;;;;;;;;;;4967293;28;20454;-86
2022/03/05 15:40:04;;;;;;;24.20;14.70;;;;;;;10.54;59.82;67944.38;4960446;28;20085;-87
2022/03/05 15:42:30;;;;;;;26.48;15.35;;;;;;;10.46;59.77;67930.53;4977304;28;20047;-86
2022/03/05 15:44:56;;;;;;;25.05;15.90;;;;;;;;;;4972409;28;20053;-85
2022/03/05 15:47:22;;;;;;;24.30;15.90;;;;;;;10.74;61.07;67961.16;4958541;28;20046;-86
2022/03/05 15:49:47;;;;;;;24.65;16.70;;;;;;;10.69;61.04;67955.50;4960189;28;20480;-86
2022/03/05 15:52:13;;;;;;;23.88;15.40;;;;;;;;;;4986004;28;20042;-86
2022/03/05 15:54:38;;;;;;;22.85;15.13;;;;;;;10.52;60.99;67942.66;4987295;28;20077;-85
2022/03/05 15:57:05;;;;;;;23.88;14.68;;;;;;;10.37;60.49;67917.66;4980072;28;20047;-86
2022/03/05 15:59:30;;;;;;;25.92;15.45;;;;;;;10.39;61.48;67928.47;5005370;28;20046;-86
2022/03/05 16:01:56;;;;;;;26.90;14.60;;;;;;;10.22;58.85;67903.84;4996144;28;20461;-86
2022/03/05 16:04:22;;;;;;;24.55;14.85;;;;;;;;;;4997064;28;20043;-86
2022/03/05 16:06:47;;;;;;;29.73;15.15;;;;;;;10.24;56.18;67906.13;5016152;28;20042;-85
2022/03/05 16:09:12;;;;;;;23.27;13.95;;;;;;;10.13;59.07;67894.22;5004173;28;20192;-85
2022/03/05 16:11:39;;;;;;;25.02;14.75;;;;;;;9.94;59.46;67873.22;4998408;28;20053;-84
2022/03/05 16:14:05;;;;;;;26.02;13.60;;;;;;;;;;4979060;28;20045;-86
2022/03/05 16:16:30;;;;;;;23.30;15.07;;;;;;;;;;4982774;28;20050;-86
2022/03/05 16:18:56;;;;;;;22.45;13.88;;;;;;;9.71;63.34;67844.47;5007761;28;20046;-86
2022/03/05 16:21:21;;;;;;;25.67;13.32;;;;;;;9.59;61.38;67838.84;4990249;28;20050;-86
2022/03/05 16:23:48;;;;;;;22.80;12.98;;;;;;;;;;5005213;28;20698;-87
2022/03/05 16:26:13;;;;;;;22.30;14.57;;;;;;;9.58;61.05;67827.06;4999145;28;20126;-85
2022/03/05 16:28:40;;;;;;;24.67;14.07;;;;;;;9.35;61.32;67812.19;5011593;28;20058;-85
2022/03/05 16:31:08;;;;;;;26.20;15.38;;;;;;;9.52;63.06;67825.59;4993057;28;20034;-85
2022/03/05 16:33:34;;;;;;;25.83;14.93;;;;;;;;;;4987958;28;20046;-85
2022/03/05 16:36:02;;;;;;;23.83;14.80;;;;;;;9.30;63.78;67801.22;4976601;28;20096;-86
2022/03/05 16:38:27;;;;;;;25.55;15.38;;;;;;;9.27;61.50;67804.25;4982201;28;20050;-86
2022/03/05 16:40:53;;;;;;;26.25;15.40;;;;;;;;;;4985412;28;20057;-85
2022/03/05 16:43:18;;;;;;;25.13;15.48;;;;;;;;;;4995074;28;20046;-86
2022/03/05 16:45:47;;;;;;;25.02;14.75;;;;;;;8.73;66.07;67744.19;5008009;28;20050;-86
2022/03/05 16:48:13;;;;;;;25.92;14.93;;;;;;;8.58;65.66;67727.22;4983596;28;20046;-85
2022/03/05 16:50:38;;;;;;;26.23;14.77;;;;;;;8.52;67.68;67720.41;4986291;28;20049;-85
2022/03/05 16:53:04;;;;;;;27.48;16.20;;;;;;;8.39;71.57;67700.94;4988249;28;20133;-84
2022/03/05 16:55:29;;;;;;;26.23;15.38;;;;;;;8.34;73.02;67695.84;4990115;28;20496;-86
2022/03/05 16:57:55;;;;;;;26.27;15.85;;;;;;;8.16;70.59;67680.16;4954037;28;20510;-85
2022/03/05 17:00:20;;;;;;;26.83;16.10;;;;;;;8.02;70.60;67660.13;5001790;28;20816;-85
2022/03/05 17:02:46;;;;;;;24.33;15.30;;;;;;;;;;4990234;28;20416;-86
2022/03/05 17:05:12;;;;;;;26.35;15.20;;;;;;;7.70;73.21;67624.47;4986583;28;20046;-85
2022/03/05 17:07:41;;;;;;;24.90;15.10;;;;;;;7.51;71.13;67611.50;4988416;28;20509;-87
2022/03/05 17:10:09;;;;;;;25.27;15.10;;;;;;;7.38;71.23;67594.69;4990873;28;20050;-85
2022/03/05 17:12:34;;;;;;;27.27;14.63;;;;;;;7.11;69.95;67567.34;5007641;28;20579;-88
2022/03/05 17:15:01;;;;;;;26.55;15.98;;;;;;;7.08;74.48;67560.72;4987736;28;20037;-86
2022/03/05 17:17:26;;;;;;;29.60;15.27;;;;;;;6.93;69.61;67546.97;4993346;28;20544;-85
2022/03/05 17:19:54;;;;;;;28.08;16.08;;;;;;;6.90;74.57;67541.50;5013565;28;20092;-85
2022/03/05 17:22:21;;;;;;;25.65;15.65;;;;;;;6.87;75.35;67532.81;5000400;28;20105;-86
2022/03/05 17:24:49;;;;;;;38.83;26.35;;;;;;;6.79;75.43;67529.06;5011905;28;20100;-85
2022/03/05 17:27:14;;;;;;;33.67;19.08;;;;;;;6.66;74.83;67517.00;5013370;28;20554;-85
2022/03/05 17:29:41;;;;;;;28.02;16.60;;;;;;;;;;4999932;28;20101;-85
2022/03/05 17:32:06;;;;;;;28.83;18.13;;;;;;;;;;4999127;28;20049;-85
2022/03/05 17:34:33;;;;;;;28.25;18.00;;;;;;;;;;4984982;28;20050;-85
2022/03/05 17:36:58;;;;;;;34.25;20.40;;;;;;;6.45;77.42;67491.75;4982493;28;20100;-86
2022/03/05 17:39:25;;;;;;;34.38;19.75;;;;;;;6.27;75.61;67477.25;5013278;28;20089;-85
2022/03/05 17:41:50;;;;;;;36.33;22.33;;;;;;;;;;4984970;28;20046;-85
2022/03/05 17:44:16;;;;;;;32.92;18.67;;;;;;;5.98;78.82;67439.16;4979407;28;20065;-86
2022/03/05 17:46:43;;;;;;;31.38;16.00;;;;;;;5.87;76.02;67422.00;4986746;28;20043;-86
2022/03/05 17:49:16;;;;;;;29.58;16.85;;;;;;;5.76;76.67;67417.50;4994607;28;20039;-85
2022/03/05 17:51:43;;;;;;;30.63;16.90;;;;;;;5.75;78.34;67409.00;4986209;28;20046;-85
2022/03/05 17:54:08;;;;;;;29.33;15.95;;;;;;;5.58;76.42;67395.66;5026217;28;20038;-86
2022/03/05 17:56:34;;;;;;;27.80;16.83;;;;;;;;;;5004219;28;20418;-85
2022/03/05 17:59:01;;;;;;;28.58;15.98;;;;;;;;;;4993319;28;20090;-87
2022/03/05 18:01:27;;;;;;;28.67;17.02;;;;;;;;;;4993440;28;20107;-85
2022/03/05 18:03:52;;;;;;;29.02;16.05;;;;;;;5.30;80.83;67364.00;5019634;28;20066;-86
2022/03/05 18:06:18;;;;;;;30.25;17.13;;;;;;;5.19;80.93;67352.69;4999908;28;20609;-86
2022/03/05 18:08:44;;;;;;;28.25;15.75;;;;;;;5.16;82.28;67348.75;4994779;28;20057;-85
2022/03/05 18:11:13;;;;;;;28.35;17.75;;;;;;;5.13;83.08;67340.66;5004402;28;20038;-85
2022/03/05 18:13:41;;;;;;;29.42;17.40;;;;;;;5.00;82.84;67333.31;5033094;28;20122;-86
2022/03/05 18:16:09;;;;;;;31.92;17.35;;;;;;;4.96;82.74;67327.28;4988054;28;20101;-85
2022/03/05 18:18:34;;;;;;;30.40;16.70;;;;;;;4.80;82.27;67309.22;4981975;28;20609;-86
2022/03/05 18:21:00;;;;;;;30.45;17.08;;;;;;;4.70;82.73;67300.56;5004998;28;20101;-85
2022/03/05 18:23:26;;;;;;;31.80;17.10;;;;;;;4.61;81.51;67290.97;4982155;28;20101;-85
2022/03/05 18:25:53;;;;;;;32.08;17.52;;;;;;;4.53;83.36;67279.28;4960390;28;20441;-85
2022/03/05 18:28:19;;;;;;;27.63;17.10;;;;;;;4.53;83.84;67279.28;4995945;28;20047;-86
2022/03/05 18:30:51;;;;;;;32.00;18.40;;;;;;;4.47;83.32;67273.09;4956997;28;20044;-85
2022/03/05 18:33:17;;;;;;;32.50;18.45;;;;;;;4.34;83.07;67263.13;4940108;28;20070;-86
2022/03/05 18:35:42;;;;;;;30.33;17.35;;;;;;;4.27;84.23;67253.16;4927305;29;20067;-85
2022/03/05 18:38:07;;;;;;;30.50;18.00;;;;;;;;;;4890383;29;20043;-85
2022/03/05 18:40:33;;;;;;;33.00;17.88;;;;;;;4.10;85.97;67231.31;4913995;29;20122;-86
2022/03/05 18:42:58;;;;;;;33.22;18.00;;;;;;;4.06;85.37;67230.03;4915926;29;20044;-85
2022/03/05 18:45:24;;;;;;;31.67;18.05;;;;;;;3.96;85.30;67216.09;4919991;29;20138;-85
2022/03/05 18:47:49;;;;;;;33.35;18.50;;;;;;;3.88;84.57;67212.31;4934731;28;20457;-85
2022/03/05 18:50:16;;;;;;;32.65;18.77;;;;;;;3.91;87.23;67211.00;4926202;28;20637;-84
2022/03/05 18:52:42;;;;;;;35.67;18.85;;;;;;;;;;4936326;29;20126;-86
2022/03/05 18:55:08;;;;;;;30.17;18.20;;;;;;;3.79;86.67;67197.47;4934373;28;20177;-86
2022/03/05 18:57:45;;;;;;;33.15;18.38;;;;;;;3.80;86.33;67198.63;4928415;29;20054;-85
2022/03/05 19:00:11;;;;;;;32.60;19.55;;;;;;;3.74;86.42;67192.41;4932574;28;20398;-85
2022/03/05 19:02:37;;;;;;;30.95;17.88;;;;;;;3.67;84.90;67183.94;4951283;28;20039;-85
2022/03/05 19:05:04;;;;;;;31.75;18.83;;;;;;;3.62;86.60;67178.84;4931012;28;20039;-85
2022/03/05 19:07:30;;;;;;;35.65;20.92;;;;;;;3.60;86.98;67179.25;4947029;28;20105;-85
2022/03/05 19:09:56;;;;;;;31.83;18.10;;;;;;;;;;4933849;28;20514;-86
2022/03/05 19:12:21;;;;;;;33.88;18.73;;;;;;;3.52;85.58;67170.22;4958681;28;20334;-86
2022/03/05 19:14:46;;;;;;;37.90;20.63;;;;;;;3.42;87.29;67162.13;5018616;28;20740;-85
2022/03/05 19:17:12;;;;;;;37.15;20.08;;;;;;;3.32;87.59;67145.59;4979433;28;20137;-86
2022/03/05 19:19:38;;;;;;;38.22;20.25;;;;;;;3.23;88.57;67136.00;5008266;28;20038;-85
2022/03/05 19:22:04;;;;;;;36.53;20.08;;;;;;;3.11;88.14;67123.03;4993648;28;20049;-86
2022/03/05 19:24:29;;;;;;;33.25;20.85;;;;;;;3.04;88.95;67119.84;5009696;28;20141;-85
2022/03/05 19:26:55;;;;;;;34.83;20.73;;;;;;;2.99;89.03;67112.13;5009089;28;20650;-85
2022/03/05 19:29:21;;;;;;;33.00;18.83;;;;;;;2.91;87.86;67103.13;5025105;28;20042;-86
2022/03/05 19:31:46;;;;;;;33.03;19.80;;;;;;;;;;5008698;28;20049;-85
2022/03/05 19:34:13;;;;;;;30.90;19.80;;;;;;;2.78;90.69;67086.38;4979119;28;20042;-86
2022/03/05 19:36:39;;;;;;;33.92;19.45;;;;;;;2.62;89.68;67068.38;5018675;28;20134;-85
2022/03/05 19:39:05;;;;;;;33.17;19.80;;;;;;;2.60;89.76;67066.09;4967353;28;20568;-85
2022/03/05 19:41:31;;;;;;;33.70;21.05;;;;;;;2.57;90.29;67067.97;4992830;28;20469;-86
2022/03/05 19:43:56;;;;;;;35.50;21.05;;;;;;;2.62;90.63;67071.56;4971716;28;20054;-85
2022/03/05 19:46:24;;;;;;;36.33;22.42;;;;;;;2.61;90.46;67067.78;4950351;28;20599;-88
2022/03/05 19:48:50;;;;;;;34.67;22.55;;;;;;;2.56;89.41;67064.78;4941438;28;20055;-86
2022/03/05 19:51:15;;;;;;;34.92;22.05;;;;;;;2.57;88.78;67065.34;4963978;28;20038;-85
2022/03/05 19:53:41;;;;;;;39.00;23.23;;;;;;;2.55;88.41;67065.72;4976682;28;20046;-88
2022/03/05 19:56:07;;;;;;;39.83;22.50;;;;;;;2.55;88.52;67063.09;4947595;28;20532;-86
2022/03/05 19:58:32;;;;;;;29.95;18.92;;;;;;;2.53;88.80;67063.47;4968868;28;20079;-85
2022/03/05 20:00:58;;;;;;;34.53;19.88;;;;;;;2.45;87.35;67052.97;4970535;28;20086;-86
2022/03/05 20:03:23;;;;;;;29.95;19.30;;;;;;;2.48;89.09;67056.34;4969644;28;20628;-86
2022/03/05 20:05:49;;;;;;;32.92;20.50;;;;;;;2.44;87.79;67051.25;4958166;28;20146;-85
2022/03/05 20:08:14;;;;;;;35.35;18.75;;;;;;;;;;4964704;28;20150;-85
2022/03/05 20:10:40;;;;;;;37.13;21.08;;;;;;;2.32;89.34;67040.38;4980439;28;20133;-85
2022/03/05 20:13:06;;;;;;;32.10;18.75;;;;;;;2.31;88.48;67036.63;4969893;28;20053;-84
2022/03/05 20:15:31;;;;;;;33.08;20.08;;;;;;;2.35;89.26;67033.25;4987145;28;20046;-85
2022/03/05 20:17:56;;;;;;;37.35;20.40;;;;;;;2.36;87.92;67039.63;4988776;28;20050;-86
2022/03/05 20:20:23;;;;;;;36.53;20.42;;;;;;;2.31;88.83;67036.63;5020367;28;20061;-86
2022/03/05 20:22:48;;;;;;;33.55;21.55;;;;;;;2.26;87.53;67032.09;4988799;28;20373;-84
2022/03/05 20:25:17;;;;;;;34.05;19.83;;;;;;;2.27;89.31;67035.28;4986277;28;20481;-85
2022/03/05 20:27:43;;;;;;;37.67;22.17;;;;;;;2.22;88.54;67024.41;4968897;28;20042;-85
2022/03/05 20:30:13;;;;;;;36.97;21.35;;;;;;;2.07;89.43;67010.69;4973940;28;20046;-85
2022/03/05 20:32:39;;;;;;;39.65;20.98;;;;;;;2.05;89.97;67007.91;4974503;28;20212;-87
2022/03/05 20:35:06;;;;;;;38.75;21.65;;;;;;;2.03;89.09;67003.56;4987781;28;20122;-84
2022/03/05 20:37:32;;;;;;;40.53;23.13;;;;;;;1.99;90.14;66999.63;4979965;28;20050;-86
2022/03/05 20:39:58;;;;;;;40.67;21.98;;;;;;;;;;4984342;28;20516;-85
2022/03/05 20:42:23;;;;;;;39.78;23.45;;;;;;;1.93;90.23;66995.50;4985243;28;20121;-86
2022/03/05 20:44:49;;;;;;;37.30;21.65;;;;;;;1.93;89.49;66994.94;5013805;28;20042;-85
2022/03/05 20:47:15;;;;;;;35.75;21.20;;;;;;;1.91;90.22;66990.63;5016585;28;20516;-85
2022/03/05 20:49:41;;;;;;;35.47;20.83;;;;;;;1.90;90.42;66988.91;4985409;28;20038;-85
2022/03/05 20:52:06;;;;;;;36.08;21.65;;;;;;;1.91;91.21;66993.25;5009105;28;20051;-88
2022/03/05 20:54:31;;;;;;;30.75;18.65;;;;;;;1.67;88.01;66969.41;4987659;28;20054;-85
2022/03/05 20:56:57;;;;;;;31.10;18.33;;;;;;;1.69;88.90;66968.47;5002637;28;20042;-85
2022/03/05 20:59:22;;;;;;;33.10;20.25;;;;;;;1.71;91.23;66973.34;4985549;28;20069;-86
2022/03/05 21:01:48;;;;;;;34.45;19.85;;;;;;;1.70;89.72;66972.78;4983722;28;20529;-85
2022/03/05 21:04:14;;;;;;;33.60;20.60;;;;;;;1.71;90.17;66971.28;4998684;28;20050;-86
2022/03/05 21:06:40;;;;;;;35.53;21.17;;;;;;;1.68;90.32;66967.34;4978162;28;20070;-86
2022/03/05 21:09:05;;;;;;;35.13;22.63;;;;;;;1.61;91.43;66962.63;4974099;28;20121;-85
2022/03/05 21:11:31;;;;;;;37.85;25.45;;;;;;;1.60;91.50;66961.50;4992355;28;20055;-86
2022/03/05 21:13:56;;;;;;;37.72;22.60;;;;;;;;;;4979812;28;20106;-85
2022/03/05 21:16:22;;;;;;;36.45;22.63;;;;;;;1.58;91.77;66956.63;4979205;28;20049;-85
2022/03/05 21:18:47;;;;;;;35.35;21.38;;;;;;;1.52;91.93;66950.44;4988596;28;20034;-86
2022/03/05 21:21:13;;;;;;;39.92;20.42;;;;;;;1.43;90.49;66942.94;4982701;28;20409;-87
2022/03/05 21:23:39;;;;;;;36.95;22.80;;;;;;;1.50;93.38;66947.63;5000834;28;20046;-86
2022/03/05 21:26:05;;;;;;;39.53;22.23;;;;;;;1.49;92.60;66947.06;4970683;28;20130;-85
2022/03/05 21:28:30;;;;;;;36.03;21.52;;;;;;;1.50;93.05;66945.56;5003588;28;20517;-85
2022/03/05 21:30:56;;;;;;;36.15;22.58;;;;;;;1.56;93.04;66957.56;4996790;28;20034;-85
2022/03/05 21:33:24;;;;;;;37.92;22.15;;;;;;;1.50;92.62;66950.81;4978247;28;20034;-87
2022/03/05 21:35:49;;;;;;;38.30;22.40;;;;;;;1.47;92.77;66944.25;5003369;28;20034;-88
2022/03/05 21:38:15;;;;;;;38.30;21.45;;;;;;;1.37;93.46;66933.56;4998271;28;20544;-85
2022/03/05 21:40:42;;;;;;;34.92;20.17;;;;;;;1.31;91.95;66929.44;4987454;28;20039;-85
2022/03/05 21:43:08;;;;;;;36.03;21.05;;;;;;;;;;4986144;28;20114;-87
2022/03/05 21:45:34;;;;;;;33.88;20.92;;;;;;;1.38;93.05;66937.28;4989297;28;20055;-88
2022/03/05 21:47:59;;;;;;;39.28;23.65;;;;;;;1.35;94.30;66936.53;4988301;28;20046;-85
2022/03/05 21:50:24;;;;;;;38.00;21.63;;;;;;;1.24;94.44;66916.31;5018962;28;20054;-87
2022/03/05 21:52:50;;;;;;;37.40;23.27;;;;;;;1.21;95.20;66915.53;4990487;28;20042;-85
2022/03/05 21:55:15;;;;;;;42.53;22.70;;;;;;;1.19;94.82;66919.09;4987281;28;20118;-85
2022/03/05 21:57:41;;;;;;;36.72;21.00;;;;;;;1.14;95.14;66905.59;4979991;28;20506;-86
2022/03/05 22:00:09;;;;;;;40.08;20.42;;;;;;;1.08;94.15;66901.47;4989095;28;20039;-86
2022/03/05 22:02:35;;;;;;;39.00;20.65;;;;;;;1.04;94.99;66894.91;4980575;28;20043;-85
2022/03/05 22:05:01;;;;;;;34.75;21.90;;;;;;;1.02;95.10;66897.91;4990727;28;20049;-87
2022/03/05 22:07:26;;;;;;;35.60;22.08;;;;;;;1.04;96.06;66896.97;4989681;28;20417;-86
2022/03/05 22:09:51;;;;;;;33.10;22.25;;;;;;;;;;5023931;28;20065;-86
2022/03/05 22:12:17;;;;;;;33.50;20.48;;;;;;;1.02;94.86;66897.91;5003727;28;20035;-85
2022/03/05 22:14:42;;;;;;;34.90;21.00;;;;;;;1.02;95.71;66894.72;4988598;28;20049;-86
2022/03/05 22:17:07;;;;;;;36.22;21.48;;;;;;;1.04;94.86;66896.97;4990171;28;20493;-85
2022/03/05 22:19:33;;;;;;;34.92;20.08;;;;;;;1.00;95.22;66890.41;4981451;28;20073;-86
2022/03/05 22:21:59;;;;;;;36.55;20.55;;;;;;;0.94;96.04;66888.91;4990314;28;20065;-85
2022/03/05 22:24:24;;;;;;;32.15;17.75;;;;;;;0.85;93.91;66878.78;4991936;28;20059;-86
2022/03/05 22:26:49;;;;;;;35.05;17.70;;;;;;;0.81;93.90;66871.66;5005939;28;20038;-86
2022/03/05 22:29:15;;;;;;;33.90;19.90;;;;;;;0.86;95.12;66877.84;4978075;28;20117;-85
2022/03/05 22:31:40;;;;;;;34.50;20.13;;;;;;;0.87;95.19;66878.41;4989504;28;20049;-87
2022/03/05 22:34:06;;;;;;;32.95;21.30;;;;;;;0.86;95.68;66877.28;4990589;28;20034;-86
2022/03/05 22:36:31;;;;;;;31.73;19.80;;;;;;;0.80;95.48;66870.53;5014723;28;20057;-86
2022/03/05 22:38:56;;;;;;;35.38;22.30;;;;;;;0.85;96.03;66876.16;4983607;28;20050;-87
2022/03/05 22:41:22;;;;;;;32.22;19.88;;;;;;;0.88;95.59;66882.72;5009717;28;20045;-88
2022/03/05 22:43:48;;;;;;;33.25;18.88;;;;;;;0.79;94.54;66872.03;5005446;28;20038;-88
2022/03/05 22:46:14;;;;;;;33.10;19.77;;;;;;;0.84;95.67;66878.22;4984552;28;20057;-87
2022/03/05 22:48:39;;;;;;;33.78;19.77;;;;;;;;;;4991412;28;20081;-88
2022/03/05 22:51:06;;;;;;;30.77;19.38;;;;;;;0.79;95.27;66867.34;5015386;28;20089;-87
2022/03/05 22:53:31;;;;;;;35.10;21.80;;;;;;;0.82;95.20;66873.34;4993783;28;20076;-87
2022/03/05 22:55:59;;;;;;;34.72;19.67;;;;;;;0.81;95.16;66871.66;4985718;28;20038;-86
2022/03/05 22:58:25;;;;;;;34.15;17.98;;;;;;;0.68;94.80;66855.53;4986911;28;20629;-89
2022/03/05 23:01:03;;;;;;;33.85;19.85;;;;;;;0.68;94.33;66855.53;4981182;28;20037;-86
2022/03/05 23:06:13;;;;;;;31.63;19.65;;;;;;;0.71;95.21;66858.34;4975238;28;20525;-87
2022/03/05 23:11:23;;;;;;;32.70;19.42;;;;;;;0.57;96.20;66845.22;4993613;28;20073;-89
2022/03/05 23:13:49;;;;;;;29.98;17.88;;;;;;;0.48;95.31;66837.72;4979712;28;20059;-88
2022/03/05 23:16:14;;;;;;;31.42;19.55;;;;;;;0.51;96.03;66839.03;4988844;28;20073;-87